Time;durP1;ratioP1;P1;durP2;ratioP2;P2;SDS_P1;SDS_P2;PMS_P1;PMS_P2;Temp;Humidity;BMP_temperature;BMP_pressure;BME280_temperature;BME280_humidity;BME280_pressure;Samples;Min_cycle;Max_cycle;Signal;HPM_P1;HPM_P2
2022/01/31 00:02:11;;;;;;;1.85;0.70;;;;;;;;;;5006459;28;20043;-50
2022/01/31 00:04:37;;;;;;;3.00;0.82;;;;;;;;;;5004859;28;20057;-45
2022/01/31 00:07:03;;;;;;;3.97;1.08;;;;;;;;;;5000661;28;20557;-48
2022/01/31 00:09:28;;;;;;;3.45;0.88;;;;;;;;;;5000478;28;20046;-48
2022/01/31 00:11:59;;;;;;;1.05;0.75;;;;;;;;;;5002412;28;20091;-46
2022/01/31 00:14:35;;;;;;;2.05;0.82;;;;;;;;;;4998191;28;20046;-46
2022/01/31 00:17:01;;;;;;;2.97;0.80;;;;;;;;;;4998497;28;20064;-47
2022/01/31 00:19:26;;;;;;;2.03;0.80;;;;;;;;;;4996127;28;20061;-47
2022/01/31 00:21:51;;;;;;;4.22;1.90;;;;;;;;;;5001699;28;20045;-46
2022/01/31 00:24:17;;;;;;;7.10;0.95;;;;;;;;;;5003160;28;20057;-47
2022/01/31 00:26:42;;;;;;;2.35;1.15;;;;;;;;;;5004941;28;20065;-45
2022/01/31 00:29:07;;;;;;;2.25;1.38;;;;;;;;;;5002783;28;20049;-47
2022/01/31 00:31:32;;;;;;;3.72;0.95;;;;;;;;;;4998786;28;20034;-48
2022/01/31 00:33:58;;;;;;;3.42;1.13;;;;;;;;;;5003709;28;20074;-47
2022/01/31 00:36:23;;;;;;;3.15;0.95;;;;;;;;;;5003901;28;20494;-45
2022/01/31 00:38:48;;;;;;;4.65;1.83;;;;;;;;;;4999062;28;20498;-46
2022/01/31 00:41:14;;;;;;;1.58;0.90;;;;;;;;;;5004073;28;20034;-47
2022/01/31 00:43:39;;;;;;;1.05;0.95;;;;;;;;;;4986415;28;20033;-48
2022/01/31 00:46:11;;;;;;;2.33;1.17;;;;;;;;;;5008574;28;20466;-50
2022/01/31 00:48:42;;;;;;;2.35;1.23;;;;;;;;;;5004738;28;20825;-50
2022/01/31 00:51:08;;;;;;;2.65;0.88;;;;;;;;;;5005539;28;20042;-51
2022/01/31 00:53:33;;;;;;;3.30;0.90;;;;;;;;;;5009617;28;20099;-49
2022/01/31 00:55:59;;;;;;;3.35;1.23;;;;;;;;;;5005662;28;20038;-47
2022/01/31 00:58:24;;;;;;;1.73;1.05;;;;;;;;;;5005574;28;20050;-48
2022/01/31 01:00:49;;;;;;;1.58;0.68;;;;;;;;;;5006113;28;20463;-50
2022/01/31 01:03:14;;;;;;;3.03;1.20;;;;;;;;;;5005736;28;20117;-49
2022/01/31 01:05:40;;;;;;;4.70;1.30;;;;;;;;;;5004803;28;20178;-47
2022/01/31 01:08:05;;;;;;;2.63;1.00;;;;;;;;;;4985472;28;20454;-50
2022/01/31 01:10:30;;;;;;;1.67;0.70;;;;;;;;;;5004085;28;22662;-48
2022/01/31 01:12:56;;;;;;;1.17;1.05;;;;;;;;;;5006331;28;20098;-48
2022/01/31 01:15:21;;;;;;;4.80;1.27;;;;;;;;;;5004583;28;20532;-48
2022/01/31 01:17:47;;;;;;;6.38;1.65;;;;;;;;;;5006315;28;20030;-48
2022/01/31 01:20:15;;;;;;;5.68;1.63;;;;;;;;;;5002120;28;20569;-52
2022/01/31 01:22:40;;;;;;;0.75;0.63;;;;;;;;;;5005964;28;20057;-47
2022/01/31 01:25:06;;;;;;;3.38;1.88;;;;;;;;;;5005825;28;20511;-47
2022/01/31 01:27:32;;;;;;;2.15;0.85;;;;;;;;;;5003889;28;20049;-49
2022/01/31 01:29:57;;;;;;;4.85;1.85;;;;;;;;;;5005971;28;20509;-50
2022/01/31 01:32:24;;;;;;;2.13;0.90;;;;;;;;;;5004571;28;20046;-50
2022/01/31 01:34:49;;;;;;;2.03;0.57;;;;;;;;;;5008102;28;20030;-51
2022/01/31 01:37:15;;;;;;;1.38;0.68;;;;;;;;;;5005672;28;20041;-48
2022/01/31 01:39:41;;;;;;;3.67;1.02;;;;;;;;;;5005161;28;20804;-50
2022/01/31 01:42:07;;;;;;;2.70;0.93;;;;;;;;;;5004803;28;20038;-47
2022/01/31 01:44:58;;;;;;;3.67;1.90;;;;;;;;;;5007430;28;20049;-51
2022/01/31 01:47:24;;;;;;;1.77;1.13;;;;;;;;;;4997020;28;20500;-47
2022/01/31 01:49:50;;;;;;;2.63;1.08;;;;;;;;;;5004778;28;20093;-48
2022/01/31 01:52:15;;;;;;;3.60;1.00;;;;;;;;;;5005394;28;20038;-46
2022/01/31 01:54:41;;;;;;;3.00;1.40;;;;;;;;;;5000271;28;20499;-50
2022/01/31 01:57:06;;;;;;;3.28;1.30;;;;;;;;;;5006037;28;20041;-51
2022/01/31 01:59:36;;;;;;;7.55;1.38;;;;;;;;;;4996553;28;20494;-47
2022/01/31 02:02:02;;;;;;;1.67;0.63;;;;;;;;;;5004605;28;20033;-47
2022/01/31 02:04:28;;;;;;;1.58;0.80;;;;;;;;;;5000189;28;20073;-47
2022/01/31 02:06:53;;;;;;;5.60;0.93;;;;;;;;;;5008530;28;20025;-47
2022/01/31 02:09:21;;;;;;;3.58;1.52;;;;;;;;;;5008273;28;20117;-48
2022/01/31 02:11:47;;;;;;;2.63;1.10;;;;;;;;;;5008307;28;20121;-49
2022/01/31 02:14:12;;;;;;;5.45;1.52;;;;;;;;;;5008687;28;20141;-47
2022/01/31 02:16:37;;;;;;;2.65;1.05;;;;;;;;;;5008816;28;20792;-46
2022/01/31 02:19:02;;;;;;;4.60;1.33;;;;;;;;;;5008341;28;20081;-48
2022/01/31 02:21:28;;;;;;;2.85;1.55;;;;;;;;;;5008134;28;20038;-46
2022/01/31 02:23:53;;;;;;;4.03;1.08;;;;;;;;;;5009003;28;20073;-48
2022/01/31 02:26:18;;;;;;;4.75;1.40;;;;;;;;;;5013371;28;20142;-46
2022/01/31 02:28:44;;;;;;;4.03;1.42;;;;;;;;;;5006761;28;20116;-49
2022/01/31 02:31:09;;;;;;;4.55;1.45;;;;;;;;;;5009330;28;20038;-47
2022/01/31 02:33:34;;;;;;;5.00;1.52;;;;;;;;;;5007679;28;20070;-47
2022/01/31 02:36:00;;;;;;;5.97;1.60;;;;;;;;;;5008164;28;20036;-46
2022/01/31 02:38:26;;;;;;;2.08;1.20;;;;;;;;;;5007615;28;20572;-46
2022/01/31 02:40:51;;;;;;;4.75;1.40;;;;;;;;;;5011048;28;20038;-48
2022/01/31 02:43:24;;;;;;;4.40;1.45;;;;;;;;;;5008511;28;20387;-46
2022/01/31 02:45:49;;;;;;;1.77;1.23;;;;;;;;;;5006808;28;20045;-48
2022/01/31 02:48:18;;;;;;;2.38;1.40;;;;;;;;;;5010830;28;20057;-48
2022/01/31 02:50:43;;;;;;;7.05;1.30;;;;;;;;;;5009465;28;20080;-47
2022/01/31 02:53:30;;;;;;;5.10;1.25;;;;;;;;;;5004142;28;20041;-47
2022/01/31 02:55:57;;;;;;;3.53;1.13;;;;;;;;;;5001558;28;20065;-47
2022/01/31 02:58:24;;;;;;;4.72;1.30;;;;;;;;;;4999354;28;20030;-47
2022/01/31 03:00:50;;;;;;;2.80;0.77;;;;;;;;;;5007111;28;20057;-48
2022/01/31 03:03:15;;;;;;;3.83;1.08;;;;;;;;;;5007074;28;20139;-49
2022/01/31 03:05:40;;;;;;;3.20;0.98;;;;;;;;;;5005394;28;20142;-51
2022/01/31 03:08:06;;;;;;;3.47;1.95;;;;;;;;;;5006510;28;20044;-49
2022/01/31 03:10:31;;;;;;;1.50;0.90;;;;;;;;;;5002788;28;20049;-47
2022/01/31 03:12:57;;;;;;;3.83;1.73;;;;;;;;;;5005160;28;20030;-48
2022/01/31 03:15:22;;;;;;;4.22;1.40;;;;;;;;;;5007762;28;20453;-48
2022/01/31 03:17:49;;;;;;;4.38;1.42;;;;;;;;;;5006302;28;20052;-48
2022/01/31 03:20:16;;;;;;;2.50;1.20;;;;;;;;;;5001050;28;20514;-46
2022/01/31 03:22:41;;;;;;;2.33;0.60;;;;;;;;;;5007464;28;20525;-46
2022/01/31 03:25:07;;;;;;;3.42;1.08;;;;;;;;;;5012296;28;20053;-47
2022/01/31 03:27:32;;;;;;;2.20;0.88;;;;;;;;;;5007997;28;20034;-46
2022/01/31 03:29:57;;;;;;;4.03;1.35;;;;;;;;;;4998345;28;20527;-47
2022/01/31 03:32:23;;;;;;;4.38;1.20;;;;;;;;;;5006266;28;20045;-47
2022/01/31 03:34:48;;;;;;;4.28;1.77;;;;;;;;;;5010846;28;20034;-50
2022/01/31 03:37:13;;;;;;;5.72;1.65;;;;;;;;;;5011302;28;20037;-48
2022/01/31 03:39:38;;;;;;;6.28;1.60;;;;;;;;;;5009455;28;20030;-47
2022/01/31 03:42:04;;;;;;;2.88;1.30;;;;;;;;;;5007268;28;20026;-46
2022/01/31 03:44:30;;;;;;;5.05;1.05;;;;;;;;;;5006962;28;20050;-47
2022/01/31 03:46:55;;;;;;;9.02;1.35;;;;;;;;;;5006395;28;20034;-49
2022/01/31 03:49:20;;;;;;;2.67;1.42;;;;;;;;;;5005842;28;20034;-47
2022/01/31 03:51:46;;;;;;;2.95;1.13;;;;;;;;;;5005345;28;20045;-50
2022/01/31 03:54:11;;;;;;;3.35;1.23;;;;;;;;;;5004766;28;20065;-48
2022/01/31 03:56:37;;;;;;;2.00;1.10;;;;;;;;;;5004663;28;20037;-48
2022/01/31 03:59:02;;;;;;;5.03;1.50;;;;;;;;;;5007565;28;20076;-48
2022/01/31 04:01:28;;;;;;;4.30;1.45;;;;;;;;;;5004510;28;20038;-47
2022/01/31 04:03:53;;;;;;;3.92;1.48;;;;;;;;;;5002729;28;20034;-48
2022/01/31 04:06:18;;;;;;;3.40;1.13;;;;;;;;;;5004875;28;20073;-47
2022/01/31 04:08:43;;;;;;;6.80;1.40;;;;;;;;;;4999838;28;20046;-47
2022/01/31 04:11:10;;;;;;;2.03;1.00;;;;;;;;;;4989239;28;20164;-47
2022/01/31 04:13:35;;;;;;;5.35;1.80;;;;;;;;;;5005839;28;20026;-47
2022/01/31 04:16:00;;;;;;;4.28;1.55;;;;;;;;;;5007275;28;20022;-46
2022/01/31 04:18:26;;;;;;;2.95;1.02;;;;;;;;;;5003955;28;20057;-49
2022/01/31 04:20:51;;;;;;;5.93;1.20;;;;;;;;;;5007121;28;20049;-47
2022/01/31 04:23:19;;;;;;;8.55;1.67;;;;;;;;;;5017855;28;20037;-47
2022/01/31 04:28:39;;;;;;;5.05;1.42;;;;;;;;;;5005410;28;20029;-46
2022/01/31 04:33:48;;;;;;;5.50;1.67;;;;;;;;;;5000200;28;20030;-47
2022/01/31 04:36:14;;;;;;;7.07;2.08;;;;;;;;;;5005259;28;20048;-49
2022/01/31 04:38:40;;;;;;;4.28;0.93;;;;;;;;;;5006752;28;20037;-47
2022/01/31 04:41:05;;;;;;;7.28;1.48;;;;;;;;;;5005705;28;20073;-47
2022/01/31 04:43:32;;;;;;;7.97;2.13;;;;;;;;;;5005775;28;20057;-46
2022/01/31 04:46:00;;;;;;;4.47;1.08;;;;;;;;;;5005701;28;20132;-45
2022/01/31 04:48:25;;;;;;;1.25;0.90;;;;;;;;;;5009484;28;20045;-46
2022/01/31 04:50:51;;;;;;;7.90;2.20;;;;;;;;;;5005416;28;20388;-46
2022/01/31 04:53:16;;;;;;;4.28;1.63;;;;;;;;;;5009086;28;20034;-46
2022/01/31 04:55:41;;;;;;;6.55;2.13;;;;;;;;;;5005580;28;20084;-50
2022/01/31 04:58:07;;;;;;;5.22;1.58;;;;;;;;;;5005853;28;20034;-47
2022/01/31 05:00:32;;;;;;;4.97;1.85;;;;;;;;;;5003469;28;20121;-46
2022/01/31 05:02:57;;;;;;;7.97;1.55;;;;;;;;;;5006212;28;20237;-48
2022/01/31 05:05:23;;;;;;;4.32;1.77;;;;;;;;;;5005198;28;20057;-47
2022/01/31 05:07:51;;;;;;;5.65;1.52;;;;;;;;;;5006136;28;20117;-46
2022/01/31 05:10:16;;;;;;;5.13;1.60;;;;;;;;;;5004274;28;20040;-49
2022/01/31 05:12:41;;;;;;;4.93;1.40;;;;;;;;;;5006902;28;20121;-49
2022/01/31 05:15:07;;;;;;;3.13;1.55;;;;;;;;;;5005466;28;20038;-49
2022/01/31 05:17:32;;;;;;;4.45;1.63;;;;;;;;;;5005886;28;20046;-47
2022/01/31 05:19:57;;;;;;;6.22;2.13;;;;;;;;;;5005028;28;20038;-48
2022/01/31 05:22:23;;;;;;;2.90;1.17;;;;;;;;;;5005572;28;20128;-47
2022/01/31 05:24:48;;;;;;;4.65;1.27;;;;;;;;;;5011666;28;20400;-46
2022/01/31 05:27:14;;;;;;;2.60;1.70;;;;;;;;;;4998135;28;20157;-46
2022/01/31 05:29:39;;;;;;;5.47;1.85;;;;;;;;;;5005026;28;20038;-47
2022/01/31 05:32:05;;;;;;;6.70;1.63;;;;;;;;;;5006128;28;20052;-46
2022/01/31 05:34:30;;;;;;;5.22;2.13;;;;;;;;;;5004273;28;20045;-47
2022/01/31 05:36:56;;;;;;;6.68;1.77;;;;;;;;;;4998818;28;20526;-46
2022/01/31 05:39:25;;;;;;;5.65;1.80;;;;;;;;;;5003593;28;20488;-48
2022/01/31 05:41:54;;;;;;;3.70;1.23;;;;;;;;;;5012789;28;20029;-46
2022/01/31 05:44:20;;;;;;;3.83;1.77;;;;;;;;;;5008352;28;20042;-47
2022/01/31 05:46:45;;;;;;;5.10;2.15;;;;;;;;;;5009905;28;20065;-47
2022/01/31 05:49:10;;;;;;;6.72;1.38;;;;;;;;;;5009080;28;20034;-49
2022/01/31 05:51:40;;;;;;;3.67;1.50;;;;;;;;;;5009130;28;20038;-48
2022/01/31 05:54:05;;;;;;;4.60;1.88;;;;;;;;;;5008532;28;20100;-46
2022/01/31 05:56:31;;;;;;;7.43;1.75;;;;;;;;;;5009390;28;20034;-47
2022/01/31 05:58:56;;;;;;;1.58;0.80;;;;;;;;;;5008856;28;20034;-48
2022/01/31 06:01:21;;;;;;;2.25;1.50;;;;;;;;;;5007715;28;20048;-48
2022/01/31 06:03:46;;;;;;;3.53;1.67;;;;;;;;;;5009467;28;20740;-47
2022/01/31 06:06:11;;;;;;;3.20;1.55;;;;;;;;;;5006726;28;20482;-47
2022/01/31 06:08:37;;;;;;;2.78;1.42;;;;;;;;;;5008264;28;20037;-46
2022/01/31 06:11:02;;;;;;;2.55;1.63;;;;;;;;;;5010379;28;20100;-46
2022/01/31 06:13:31;;;;;;;4.90;2.65;;;;;;;;;;5002157;28;20038;-47
2022/01/31 06:15:56;;;;;;;2.78;0.90;;;;;;;;;;5009097;28;20117;-47
2022/01/31 06:18:22;;;;;;;7.80;1.90;;;;;;;;;;5008183;28;20589;-47
2022/01/31 06:20:47;;;;;;;5.68;1.38;;;;;;;;;;5009122;28;20423;-47
2022/01/31 06:23:12;;;;;;;2.95;1.35;;;;;;;;;;5014258;28;20034;-46
2022/01/31 06:25:38;;;;;;;3.60;1.30;;;;;;;;;;5011042;28;20046;-48
2022/01/31 06:28:05;;;;;;;3.03;1.50;;;;;;;;;;5012164;28;20045;-46
2022/01/31 06:30:30;;;;;;;5.93;1.63;;;;;;;;;;5008416;28;20121;-49
2022/01/31 06:32:55;;;;;;;4.15;1.63;;;;;;;;;;4990736;28;20121;-47
2022/01/31 06:35:21;;;;;;;5.38;2.30;;;;;;;;;;5016161;28;20078;-47
2022/01/31 06:37:46;;;;;;;7.63;1.80;;;;;;;;;;5008140;28;20030;-46
2022/01/31 06:40:11;;;;;;;4.10;1.40;;;;;;;;;;5009179;28;20084;-46
2022/01/31 06:42:37;;;;;;;5.45;1.50;;;;;;;;;;5007712;28;20129;-46
2022/01/31 06:45:03;;;;;;;2.13;1.20;;;;;;;;;;5013802;28;20074;-48
2022/01/31 06:47:29;;;;;;;3.45;1.83;;;;;;;;;;5007104;28;20066;-49
2022/01/31 06:49:54;;;;;;;2.50;1.10;;;;;;;;;;5008664;28;20049;-46
2022/01/31 06:52:19;;;;;;;7.53;2.08;;;;;;;;;;4995995;28;20033;-47
2022/01/31 06:54:49;;;;;;;4.72;1.65;;;;;;;;;;5007194;28;20529;-48
2022/01/31 06:57:14;;;;;;;5.93;1.70;;;;;;;;;;5007799;28;20045;-46
2022/01/31 06:59:40;;;;;;;3.60;1.67;;;;;;;;;;5006622;28;20033;-46
2022/01/31 07:02:05;;;;;;;4.63;1.70;;;;;;;;;;5008055;28;20050;-47
2022/01/31 07:04:30;;;;;;;6.53;2.22;;;;;;;;;;5007335;28;20034;-47
2022/01/31 07:06:55;;;;;;;7.80;2.75;;;;;;;;;;5006422;28;20025;-46
2022/01/31 07:09:22;;;;;;;2.75;1.35;;;;;;;;;;4996151;28;20041;-48
2022/01/31 07:11:50;;;;;;;3.50;1.00;;;;;;;;;;5005502;28;20056;-47
2022/01/31 07:14:30;;;;;;;5.35;1.10;;;;;;;;;;5007513;28;20081;-49
2022/01/31 07:16:56;;;;;;;2.90;1.30;;;;;;;;;;5003873;28;20451;-49
2022/01/31 07:19:25;;;;;;;5.50;1.92;;;;;;;;;;5008222;28;20068;-51
2022/01/31 07:21:51;;;;;;;4.67;1.47;;;;;;;;;;5007163;28;20052;-50
2022/01/31 07:24:21;;;;;;;1.83;1.00;;;;;;;;;;5007304;28;20121;-51
2022/01/31 07:26:47;;;;;;;4.13;1.20;;;;;;;;;;4989888;28;20122;-50
2022/01/31 07:29:12;;;;;;;2.10;1.13;;;;;;;;;;5007593;28;20120;-47
2022/01/31 07:31:38;;;;;;;5.97;1.58;;;;;;;;;;5004471;28;20038;-46
2022/01/31 07:34:03;;;;;;;3.72;1.35;;;;;;;;;;5006846;28;20045;-49
2022/01/31 07:36:29;;;;;;;3.03;1.20;;;;;;;;;;5002523;28;20499;-47
2022/01/31 07:38:55;;;;;;;4.78;1.02;;;;;;;;;;4997747;28;20110;-48
2022/01/31 07:41:20;;;;;;;5.28;1.17;;;;;;;;;;5007167;28;20042;-50
2022/01/31 07:43:45;;;;;;;2.97;1.08;;;;;;;;;;5003611;28;20759;-47
2022/01/31 07:46:12;;;;;;;2.38;1.02;;;;;;;;;;5006634;28;20538;-46
2022/01/31 07:48:37;;;;;;;6.72;1.70;;;;;;;;;;4993817;28;20450;-46
2022/01/31 07:51:02;;;;;;;2.70;0.82;;;;;;;;;;5006463;28;20483;-47
2022/01/31 07:53:27;;;;;;;0.98;0.57;;;;;;;;;;5005874;28;20807;-47
2022/01/31 07:55:53;;;;;;;5.45;1.50;;;;;;;;;;5002993;28;20487;-49
2022/01/31 07:58:20;;;;;;;2.30;1.30;;;;;;;;;;4996692;28;20077;-46
2022/01/31 08:00:45;;;;;;;3.85;1.00;;;;;;;;;;4989614;28;20045;-48
2022/01/31 08:03:10;;;;;;;3.35;0.85;;;;;;;;;;4992515;28;20034;-48
2022/01/31 08:05:36;;;;;;;7.95;1.35;;;;;;;;;;4989311;28;20061;-48
2022/01/31 08:08:01;;;;;;;2.70;1.08;;;;;;;;;;5006286;28;20042;-49
2022/01/31 08:10:26;;;;;;;4.90;1.08;;;;;;;;;;5006458;28;20553;-46
2022/01/31 08:12:52;;;;;;;3.60;1.10;;;;;;;;;;5003963;28;20034;-48
2022/01/31 08:15:25;;;;;;;3.15;1.30;;;;;;;;;;5005332;28;20042;-47
2022/01/31 08:17:50;;;;;;;5.60;0.88;;;;;;;;;;5006537;28;20066;-46
2022/01/31 08:20:15;;;;;;;3.53;0.88;;;;;;;;;;5006479;28;20062;-47
2022/01/31 08:22:41;;;;;;;4.25;1.00;;;;;;;;;;5005866;28;20054;-47
2022/01/31 08:25:13;;;;;;;2.97;1.00;;;;;;;;;;5006931;28;20745;-47
2022/01/31 08:27:40;;;;;;;6.22;1.20;;;;;;;;;;5005548;28;20042;-47
2022/01/31 08:30:10;;;;;;;2.85;1.38;;;;;;;;;;4989201;28;20110;-48
2022/01/31 08:32:44;;;;;;;4.22;1.40;;;;;;;;;;5005933;28;20092;-47
2022/01/31 08:37:53;;;;;;;2.90;1.65;;;;;;;;;;5007723;28;20449;-48
2022/01/31 08:40:18;;;;;;;2.88;1.60;;;;;;;;;;5005022;28;20562;-47
2022/01/31 08:42:44;;;;;;;2.72;1.58;;;;;;;;;;5006443;28;20034;-47
2022/01/31 08:45:09;;;;;;;3.53;1.10;;;;;;;;;;4993041;28;20046;-49
2022/01/31 08:47:34;;;;;;;5.07;1.55;;;;;;;;;;5005975;28;20030;-46
2022/01/31 08:49:59;;;;;;;3.70;1.17;;;;;;;;;;4310803;28;10000624;-48
2022/01/31 08:52:25;;;;;;;4.95;1.08;;;;;;;;;;5008710;28;20088;-47
2022/01/31 08:54:50;;;;;;;3.72;1.40;;;;;;;;;;5004598;28;20034;-47
2022/01/31 08:57:15;;;;;;;9.68;1.85;;;;;;;;;;5004575;28;20048;-48
2022/01/31 08:59:44;;;;;;;6.32;1.73;;;;;;;;;;4997160;28;20139;-47
2022/01/31 09:02:14;;;;;;;3.72;1.33;;;;;;;;;;5008415;28;20064;-47
2022/01/31 09:04:48;;;;;;;;;;;;;;;;;;5004399;28;20515;-48
2022/01/31 09:07:16;;;;;;;4.28;1.30;;;;;;;;;;4653054;28;10000130;-47
2022/01/31 09:09:42;;;;;;;4.40;1.80;;;;;;;;;;4997159;28;20061;-47
2022/01/31 09:12:09;;;;;;;4.18;1.70;;;;;;;;;;4993590;28;20120;-48
2022/01/31 09:14:34;;;;;;;5.03;1.63;;;;;;;;;;5001071;28;20038;-48
2022/01/31 09:17:00;;;;;;;5.90;1.85;;;;;;;;;;5001672;28;20034;-51
2022/01/31 09:19:26;;;;;;;3.42;1.42;;;;;;;;;;5001285;28;20042;-47
2022/01/31 09:21:51;;;;;;;4.75;1.30;;;;;;;;;;4992105;28;20595;-46
2022/01/31 09:24:16;;;;;;;5.75;1.30;;;;;;;;;;5002397;28;20038;-47
2022/01/31 09:26:41;;;;;;;5.75;1.50;;;;;;;;;;5002006;28;20122;-46
2022/01/31 09:29:07;;;;;;;4.20;2.22;;;;;;;;;;5001933;28;20438;-45
2022/01/31 09:31:32;;;;;;;5.85;1.83;;;;;;;;;;5002494;28;20072;-47
2022/01/31 09:33:57;;;;;;;5.35;1.52;;;;;;;;;;5006129;28;20026;-47
2022/01/31 09:36:22;;;;;;;6.07;1.42;;;;;;;;;;4999381;28;20042;-49
2022/01/31 09:38:48;;;;;;;4.35;1.40;;;;;;;;;;4993194;28;20743;-47
2022/01/31 09:41:18;;;;;;;5.70;2.63;;;;;;;;;;4989735;28;20073;-46
2022/01/31 09:48:38;;;;;;;5.50;1.98;;;;;;;;;;4993561;28;20443;-47
2022/01/31 09:51:10;;;;;;;5.22;2.03;;;;;;;;;;5000462;28;20046;-47
2022/01/31 09:53:38;;;;;;;3.20;1.88;;;;;;;;;;5001979;28;20039;-47
2022/01/31 09:56:04;;;;;;;6.30;1.70;;;;;;;;;;5001135;28;20038;-46
2022/01/31 09:58:30;;;;;;;4.45;1.48;;;;;;;;;;5001849;28;20042;-48
2022/01/31 10:01:05;;;;;;;3.65;1.35;;;;;;;;;;4999144;28;20044;-47
2022/01/31 10:03:30;;;;;;;4.00;2.00;;;;;;;;;;5001387;28;20072;-46
2022/01/31 10:05:56;;;;;;;6.47;2.35;;;;;;;;;;5002165;28;20057;-49
2022/01/31 10:08:27;;;;;;;5.70;1.98;;;;;;;;;;4996346;28;20099;-47
2022/01/31 10:11:00;;;;;;;5.03;1.83;;;;;;;;;;5005016;28;20038;-47
2022/01/31 10:16:30;;;;;;;5.22;2.17;;;;;;;;;;5001904;28;20778;-47
2022/01/31 10:19:03;;;;;;;8.20;2.22;;;;;;;;;;5001571;28;20029;-47
2022/01/31 10:21:28;;;;;;;7.65;2.22;;;;;;;;;;5011324;28;20034;-48
2022/01/31 10:23:53;;;;;;;5.70;2.28;;;;;;;;;;5001889;28;20053;-49
2022/01/31 10:26:25;;;;;;;6.43;2.50;;;;;;;;;;5002332;28;20060;-47
2022/01/31 10:28:51;;;;;;;5.00;1.98;;;;;;;;;;5005721;28;20028;-51
2022/01/31 10:31:16;;;;;;;7.97;2.95;;;;;;;;;;5003647;28;20398;-47
2022/01/31 10:33:59;;;;;;;5.85;3.15;;;;;;;;;;4990399;28;20069;-47
2022/01/31 10:36:25;;;;;;;8.35;2.55;;;;;;;;;;4998991;28;20034;-46
2022/01/31 10:39:06;;;;;;;4.88;1.73;;;;;;;;;;5001590;28;20034;-47
2022/01/31 10:53:07;;;;;;;8.15;1.88;;;;;;;;;;5003894;28;20080;-48
2022/01/31 10:55:32;;;;;;;3.85;1.70;;;;;;;;;;5003858;28;20095;-46
2022/01/31 10:58:04;;;;;;;6.95;2.40;;;;;;;;;;5009495;28;20041;-47
2022/01/31 11:00:33;;;;;;;4.95;2.53;;;;;;;;;;4999064;28;20042;-46
2022/01/31 11:03:00;;;;;;;6.30;2.28;;;;;;;;;;5005395;28;20037;-46
2022/01/31 11:05:25;;;;;;;9.32;2.47;;;;;;;;;;5006529;28;20042;-50
2022/01/31 11:08:10;;;;;;;5.35;2.35;;;;;;;;;;4310643;28;10000625;-48
2022/01/31 11:10:35;;;;;;;7.03;2.60;;;;;;;;;;5002595;28;20030;-49
2022/01/31 11:13:01;;;;;;;15.65;3.13;;;;;;;;;;5002495;28;20022;-46
2022/01/31 11:15:26;;;;;;;9.40;2.55;;;;;;;;;;5003647;28;20034;-47
2022/01/31 11:17:55;;;;;;;4.25;1.67;;;;;;;;;;5002368;28;20044;-48
2022/01/31 11:20:20;;;;;;;7.20;2.05;;;;;;;;;;5002701;28;20038;-46
2022/01/31 11:22:47;;;;;;;11.25;2.47;;;;;;;;;;4995084;28;20037;-47
2022/01/31 11:25:14;;;;;;;5.72;1.60;;;;;;;;;;5004003;28;20164;-46
2022/01/31 11:27:40;;;;;;;4.22;1.63;;;;;;;;;;5003154;28;20442;-47
2022/01/31 11:30:07;;;;;;;5.80;2.58;;;;;;;;;;4999197;28;20096;-47
2022/01/31 11:32:33;;;;;;;7.15;2.45;;;;;;;;;;4999649;28;20085;-46
2022/01/31 11:34:58;;;;;;;10.40;2.45;;;;;;;;;;4999660;28;20057;-47
2022/01/31 11:37:25;;;;;;;8.60;2.42;;;;;;;;;;5000009;28;20046;-47
2022/01/31 11:39:55;;;;;;;9.43;3.35;;;;;;;;;;5002472;28;20080;-47
2022/01/31 11:42:20;;;;;;;6.95;2.22;;;;;;;;;;5007792;28;20037;-47
2022/01/31 11:44:50;;;;;;;10.20;2.85;;;;;;;;;;5006235;28;20046;-45
2022/01/31 11:47:21;;;;;;;8.80;2.70;;;;;;;;;;4985416;28;20045;-49
2022/01/31 11:49:54;;;;;;;10.52;2.60;;;;;;;;;;5004603;28;20045;-49
2022/01/31 11:52:20;;;;;;;8.88;2.92;;;;;;;;;;5002409;28;20663;-48
2022/01/31 11:54:47;;;;;;;7.50;2.85;;;;;;;;;;5003959;28;20037;-48
2022/01/31 11:57:23;;;;;;;5.40;2.28;;;;;;;;;;4997367;28;20046;-48
2022/01/31 11:59:50;;;;;;;4.28;2.03;;;;;;;;;;4997708;28;20030;-48
2022/01/31 12:02:15;;;;;;;4.75;2.00;;;;;;;;;;4995379;28;20673;-47
2022/01/31 12:04:44;;;;;;;6.20;2.25;;;;;;;;;;4991120;28;20031;-49
2022/01/31 12:07:28;;;;;;;7.03;2.33;;;;;;;;;;4999508;28;20030;-47
2022/01/31 12:09:55;;;;;;;5.22;2.05;;;;;;;;;;4993100;28;20037;-47
2022/01/31 12:12:34;;;;;;;4.65;2.35;;;;;;;;;;4995483;28;20783;-47
2022/01/31 12:15:22;;;;;;;6.75;2.58;;;;;;;;;;4998313;28;20085;-46
2022/01/31 12:21:59;;;;;;;7.72;2.47;;;;;;;;;;4990947;28;20093;-47
2022/01/31 12:23:29;;;;;;;6.63;2.45;;;;;;;;;;4987586;28;20042;-48
2022/01/31 12:25:54;;;;;;;6.15;2.75;;;;;;;;;;4991941;28;20390;-47
2022/01/31 12:28:48;;;;;;;5.15;1.83;;;;;;;;;;4995544;28;20030;-47
2022/01/31 12:31:24;;;;;;;5.60;2.00;;;;;;;;;;4982806;28;20042;-48
2022/01/31 12:33:49;;;;;;;4.65;1.60;;;;;;;;;;4995516;28;20034;-49
2022/01/31 12:36:33;;;;;;;3.58;2.05;;;;;;;;;;4994394;28;20737;-48
2022/01/31 12:38:59;;;;;;;6.22;2.53;;;;;;;;;;4987863;28;20034;-46
2022/01/31 12:41:31;;;;;;;2.72;1.52;;;;;;;;;;4988592;28;20743;-46
2022/01/31 12:44:15;;;;;;;10.07;2.13;;;;;;;;;;4991276;28;20097;-47
2022/01/31 12:46:50;;;;;;;4.43;1.70;;;;;;;;;;4991190;28;20603;-48
2022/01/31 12:49:15;;;;;;;8.38;2.50;;;;;;;;;;4987186;28;20868;-46
2022/01/31 12:51:59;;;;;;;7.18;1.67;;;;;;;;;;4994215;28;20050;-50
2022/01/31 12:54:25;;;;;;;9.00;1.85;;;;;;;;;;4994740;28;20034;-49
2022/01/31 12:56:52;;;;;;;6.00;2.00;;;;;;;;;;4989549;28;20085;-50
2022/01/31 12:59:17;;;;;;;3.67;1.80;;;;;;;;;;4996647;28;20037;-47
2022/01/31 13:01:47;;;;;;;4.65;2.00;;;;;;;;;;4989633;28;20045;-49
2022/01/31 13:04:20;;;;;;;11.60;2.55;;;;;;;;;;4990726;28;20056;-47
2022/01/31 13:06:46;;;;;;;5.10;1.90;;;;;;;;;;4989997;28;20186;-46
2022/01/31 13:09:25;;;;;;;7.85;2.22;;;;;;;;;;4990747;28;20034;-46
2022/01/31 13:11:55;;;;;;;3.33;1.95;;;;;;;;;;4988090;28;20052;-45
2022/01/31 13:14:23;;;;;;;5.68;2.55;;;;;;;;;;4992105;28;20148;-45
2022/01/31 13:17:04;;;;;;;4.95;2.30;;;;;;;;;;4983927;28;20045;-46
2022/01/31 13:19:32;;;;;;;7.20;2.28;;;;;;;;;;4989190;28;20503;-47
2022/01/31 13:22:23;;;;;;;8.40;3.40;;;;;;;;;;4846261;28;10001257;-47
2022/01/31 13:24:49;;;;;;;8.98;1.77;;;;;;;;;;4999070;28;20038;-48
2022/01/31 13:27:16;;;;;;;6.25;1.80;;;;;;;;;;5003511;28;20045;-49
2022/01/31 13:29:48;;;;;;;7.32;2.20;;;;;;;;;;4996465;28;20041;-48
2022/01/31 13:32:15;;;;;;;4.25;1.85;;;;;;;;;;4999840;28;20038;-47
2022/01/31 13:34:41;;;;;;;4.72;2.15;;;;;;;;;;4999456;28;20573;-45
2022/01/31 13:37:25;;;;;;;5.13;1.77;;;;;;;;;;4982657;28;20038;-48
2022/01/31 13:39:54;;;;;;;7.43;2.15;;;;;;;;;;4650112;28;9999747;-48
2022/01/31 13:42:24;;;;;;;4.95;1.88;;;;;;;;;;5000634;28;20041;-49
2022/01/31 13:44:52;;;;;;;5.85;1.98;;;;;;;;;;5001380;28;20037;-48
2022/01/31 13:47:27;;;;;;;3.67;1.42;;;;;;;;;;4999529;28;20045;-46
2022/01/31 13:49:52;;;;;;;2.22;1.00;;;;;;;;;;4994088;28;20044;-47
2022/01/31 13:52:18;;;;;;;7.38;1.45;;;;;;;;;;5000930;28;20101;-50
2022/01/31 13:54:43;;;;;;;3.63;1.42;;;;;;;;;;4998854;28;20679;-47
2022/01/31 13:57:11;;;;;;;5.65;1.25;;;;;;;;;;5001981;28;20057;-48
2022/01/31 13:59:37;;;;;;;5.03;1.30;;;;;;;;;;4998923;28;20038;-48
2022/01/31 14:02:21;;;;;;;6.10;2.13;;;;;;;;;;5000837;28;20065;-46
2022/01/31 14:04:46;;;;;;;7.88;1.88;;;;;;;;;;5004846;28;20832;-45
2022/01/31 14:07:29;;;;;;;8.45;1.92;;;;;;;;;;5002670;28;20045;-45
2022/01/31 14:09:55;;;;;;;3.95;1.50;;;;;;;;;;5002443;28;20107;-46
2022/01/31 14:12:23;;;;;;;7.28;1.40;;;;;;;;;;4998628;28;20479;-45
2022/01/31 14:14:48;;;;;;;5.50;1.65;;;;;;;;;;4994692;28;20092;-49
2022/01/31 14:17:14;;;;;;;3.03;1.50;;;;;;;;;;4994594;28;20034;-45
2022/01/31 14:19:39;;;;;;;4.97;1.15;;;;;;;;;;4998396;28;20045;-47
2022/01/31 14:22:07;;;;;;;4.30;1.30;;;;;;;;;;4994078;28;20622;-44
2022/01/31 14:24:33;;;;;;;3.25;1.23;;;;;;;;;;4992743;28;20049;-47
2022/01/31 14:27:04;;;;;;;4.80;1.48;;;;;;;;;;4997257;28;20134;-45
2022/01/31 14:29:30;;;;;;;5.25;1.55;;;;;;;;;;4992525;28;20027;-48
2022/01/31 14:31:56;;;;;;;3.78;1.13;;;;;;;;;;5005755;28;20037;-47
2022/01/31 14:34:23;;;;;;;2.72;1.33;;;;;;;;;;5004476;28;20034;-47
2022/01/31 14:36:50;;;;;;;2.45;1.10;;;;;;;;;;5001961;28;20045;-44
2022/01/31 14:47:47;;;;;;;4.75;1.55;;;;;;;;;;5004223;28;20399;-46
2022/01/31 14:50:14;;;;;;;3.60;1.13;;;;;;;;;;5009479;28;20050;-45
2022/01/31 14:52:40;;;;;;;2.30;1.27;;;;;;;;;;5009398;28;20033;-46
2022/01/31 14:55:10;;;;;;;2.75;1.15;;;;;;;;;;5005697;28;20033;-46
2022/01/31 14:57:36;;;;;;;2.85;1.67;;;;;;;;;;5003671;28;20037;-46
2022/01/31 15:00:03;;;;;;;1.33;1.02;;;;;;;;;;4998122;28;20038;-46
2022/01/31 15:02:32;;;;;;;3.65;1.73;;;;;;;;;;5001706;28;20682;-45
2022/01/31 15:05:01;;;;;;;3.95;1.60;;;;;;;;;;5009792;28;20071;-44
2022/01/31 15:07:26;;;;;;;4.05;1.60;;;;;;;;;;5003641;28;20041;-47
2022/01/31 15:09:52;;;;;;;8.07;2.03;;;;;;;;;;5002735;28;20384;-46
2022/01/31 15:12:17;;;;;;;2.70;1.33;;;;;;;;;;5002190;28;20136;-46
2022/01/31 15:14:43;;;;;;;5.57;2.35;;;;;;;;;;5003902;28;20501;-46
2022/01/31 15:17:09;;;;;;;5.57;1.48;;;;;;;;;;4998766;28;20038;-45
2022/01/31 15:19:34;;;;;;;3.53;1.20;;;;;;;;;;5002253;28;20040;-45
2022/01/31 15:21:59;;;;;;;6.30;1.20;;;;;;;;;;4995153;28;20165;-45
2022/01/31 15:24:25;;;;;;;7.68;1.92;;;;;;;;;;4997344;28;20038;-46